createdAt,value
2022-11-05T00:00:01.467Z,6.43
2022-11-05T00:03:22.061Z,7.47
2022-11-05T00:06:42.143Z,6.43
2022-11-05T00:09:43.723Z,6.50
2022-11-05T00:13:03.780Z,6.72
2022-11-05T00:16:40.933Z,6.35
2022-11-05T00:19:42.512Z,6.55
2022-11-05T00:23:02.599Z,6.23
2022-11-05T00:26:05.712Z,6.50
2022-11-05T00:29:07.268Z,6.88
2022-11-05T00:32:08.887Z,6.15
2022-11-05T00:35:10.524Z,6.30
2022-11-05T00:38:12.145Z,6.60
2022-11-05T00:41:13.726Z,6.15
2022-11-05T00:44:33.572Z,6.07
2022-11-05T00:47:53.467Z,6.28
2022-11-05T00:50:59.603Z,7.03
2022-11-05T00:54:01.177Z,6.70
2022-11-05T00:57:04.789Z,6.18
2022-11-05T01:00:06.998Z,5.90
2022-11-05T01:03:19.172Z,6.28
2022-11-05T01:06:20.738Z,5.57
2022-11-05T01:09:22.301Z,5.70
2022-11-05T01:12:23.880Z,5.88
2022-11-05T01:15:25.450Z,5.55
2022-11-05T01:18:27.093Z,5.30
2022-11-05T01:21:28.654Z,4.67
2022-11-05T01:24:30.195Z,4.78
2022-11-05T01:27:31.836Z,5.28
2022-11-05T01:30:33.407Z,4.95
2022-11-05T01:33:34.952Z,4.93
2022-11-05T01:36:40.043Z,4.07
2022-11-05T01:39:41.640Z,4.30
2022-11-05T01:42:43.292Z,4.10
2022-11-05T01:45:46.285Z,4.20
2022-11-05T01:48:48.354Z,4.60
2022-11-05T01:51:53.407Z,3.87
2022-11-05T01:54:55.008Z,4.25
2022-11-05T01:57:56.570Z,4.55
2022-11-05T02:00:58.144Z,4.15
2022-11-05T02:04:01.554Z,4.10
2022-11-05T02:07:06.239Z,4.47
2022-11-05T02:10:13.953Z,4.05
2022-11-05T02:13:15.537Z,4.65
2022-11-05T02:16:37.485Z,4.13
2022-11-05T02:20:09.610Z,4.67
2022-11-05T02:23:59.501Z,4.18
2022-11-05T02:27:09.996Z,4.68
2022-11-05T02:30:23.750Z,4.18
2022-11-05T02:33:36.658Z,4.20
2022-11-05T02:36:46.703Z,4.32
2022-11-05T02:40:06.596Z,4.40
2022-11-05T02:43:35.600Z,4.20
2022-11-05T02:46:49.243Z,4.80
2022-11-05T02:50:06.555Z,4.18
2022-11-05T02:53:20.978Z,5.25
2022-11-05T02:56:24.710Z,4.57
2022-11-05T02:59:26.312Z,5.00
2022-11-05T03:02:28.107Z,5.00
2022-11-05T03:05:37.912Z,4.88
2022-11-05T03:08:58.494Z,5.13
2022-11-05T03:12:19.297Z,4.57
2022-11-05T03:15:29.839Z,4.35
2022-11-05T03:18:42.974Z,4.75
2022-11-05T03:22:00.926Z,5.20
2022-11-05T03:25:07.475Z,4.97
2022-11-05T03:28:09.101Z,4.60
2022-11-05T03:31:11.549Z,4.63
2022-11-05T03:34:13.118Z,5.28
2022-11-05T03:37:14.835Z,5.18
2022-11-05T03:40:16.694Z,4.68
2022-11-05T03:43:18.292Z,5.05
2022-11-05T03:46:44.336Z,5.22
2022-11-05T03:50:20.755Z,5.00
2022-11-05T03:53:30.434Z,4.63
2022-11-05T03:56:58.342Z,4.53
2022-11-05T03:59:59.946Z,4.68
2022-11-05T04:03:01.685Z,4.57
2022-11-05T04:06:23.345Z,4.67
2022-11-05T04:09:47.559Z,4.37
2022-11-05T04:13:07.544Z,4.80
2022-11-05T04:16:27.563Z,4.30
2022-11-05T04:19:47.466Z,4.72
2022-11-05T04:23:07.244Z,3.92
2022-11-05T04:26:08.950Z,4.35
2022-11-05T04:29:29.371Z,4.68
2022-11-05T04:32:30.980Z,4.80
2022-11-05T04:35:37.106Z,4.50
2022-11-05T04:38:38.653Z,4.63
2022-11-05T04:41:40.253Z,4.50
2022-11-05T04:44:41.820Z,4.65
2022-11-05T04:47:43.379Z,4.13
2022-11-05T04:50:44.982Z,4.70
2022-11-05T04:53:46.508Z,4.40
2022-11-05T04:56:51.658Z,4.45
2022-11-05T04:59:55.100Z,4.40
2022-11-05T05:02:56.652Z,4.20
2022-11-05T05:06:03.997Z,4.57
2022-11-05T05:09:05.899Z,4.90
2022-11-05T05:12:11.160Z,4.50
2022-11-05T05:15:12.760Z,4.27
2022-11-05T05:18:14.310Z,4.53
2022-11-05T05:21:35.261Z,4.32
2022-11-05T05:24:36.907Z,4.65
2022-11-05T05:27:38.464Z,4.47
2022-11-05T05:30:40.087Z,4.30
2022-11-05T05:33:41.659Z,4.22
2022-11-05T05:36:43.252Z,4.45
2022-11-05T05:39:45.964Z,4.10
2022-11-05T05:42:47.563Z,3.90
2022-11-05T05:45:49.125Z,4.00
2022-11-05T05:48:51.444Z,3.90
2022-11-05T05:51:53.019Z,3.63
2022-11-05T05:54:54.579Z,3.45
2022-11-05T05:57:56.194Z,4.10
2022-11-05T06:01:00.536Z,3.45
2022-11-05T06:04:02.099Z,3.27
2022-11-05T06:07:03.764Z,3.08
2022-11-05T06:10:06.064Z,3.67
2022-11-05T06:13:07.822Z,3.53
2022-11-05T06:16:09.595Z,3.88
2022-11-05T06:19:11.163Z,3.70
2022-11-05T06:22:12.746Z,3.30
2022-11-05T06:25:14.327Z,3.50
2022-11-05T06:28:15.878Z,3.47
2022-11-05T06:31:17.453Z,3.73
2022-11-05T06:34:19.008Z,3.63
2022-11-05T06:37:20.583Z,3.80
2022-11-05T06:40:22.155Z,3.85
2022-11-05T06:43:23.755Z,3.80
2022-11-05T06:46:25.325Z,3.65
2022-11-05T06:49:26.894Z,3.58
2022-11-05T06:52:31.274Z,3.70
2022-11-05T06:55:32.889Z,3.60
2022-11-05T06:58:34.665Z,3.50
2022-11-05T07:01:37.458Z,3.58
2022-11-05T07:04:39.173Z,3.67
2022-11-05T07:07:40.888Z,3.83
2022-11-05T07:10:42.487Z,3.85
2022-11-05T07:13:44.059Z,3.63
2022-11-05T07:16:45.726Z,3.72
2022-11-05T07:19:47.297Z,3.58
2022-11-05T07:22:48.911Z,3.80
2022-11-05T07:25:50.498Z,3.83
2022-11-05T07:28:52.138Z,3.75
2022-11-05T07:31:53.771Z,3.15
2022-11-05T07:34:55.302Z,3.13
2022-11-05T07:37:56.924Z,2.87
2022-11-05T07:41:01.500Z,2.85
2022-11-05T07:44:07.470Z,3.33
2022-11-05T07:47:09.082Z,3.10
2022-11-05T07:50:10.655Z,3.13
2022-11-05T07:53:14.271Z,2.63
2022-11-05T07:56:16.338Z,2.80
2022-11-05T07:59:17.914Z,3.20
2022-11-05T08:02:19.685Z,2.50
2022-11-05T08:05:21.373Z,2.77
2022-11-05T08:08:22.957Z,2.80
2022-11-05T08:11:24.553Z,2.58
2022-11-05T08:14:26.103Z,2.95
2022-11-05T08:17:27.723Z,2.92
2022-11-05T08:20:29.425Z,3.10
2022-11-05T08:23:31.377Z,2.60
2022-11-05T08:26:32.957Z,2.78
2022-11-05T08:29:34.536Z,2.90
2022-11-05T08:32:36.149Z,2.90
2022-11-05T08:35:38.125Z,2.83
2022-11-05T08:38:39.730Z,2.95
2022-11-05T08:41:41.393Z,3.53
2022-11-05T08:44:42.997Z,3.40
2022-11-05T08:47:47.686Z,3.00
2022-11-05T08:50:49.572Z,3.50
2022-11-05T08:53:51.121Z,3.22
2022-11-05T08:56:52.814Z,3.38
2022-11-05T08:59:54.395Z,2.85
2022-11-05T09:03:00.807Z,3.30
2022-11-05T09:06:02.408Z,3.00
2022-11-05T09:09:04.115Z,3.00
2022-11-05T09:12:12.409Z,2.80
2022-11-05T09:15:15.011Z,2.78
2022-11-05T09:18:20.268Z,2.93
2022-11-05T09:21:21.962Z,2.97
2022-11-05T09:24:23.516Z,3.28
2022-11-05T09:27:25.105Z,3.00
2022-11-05T09:30:26.683Z,3.30
2022-11-05T09:33:28.345Z,3.17
2022-11-05T09:36:29.942Z,2.83
2022-11-05T09:39:31.534Z,3.13
2022-11-05T09:42:39.214Z,3.53
2022-11-05T09:45:40.795Z,3.50
2022-11-05T09:48:42.420Z,3.30
2022-11-05T09:51:44.030Z,3.00
2022-11-05T09:54:46.097Z,3.40
2022-11-05T09:57:53.444Z,3.00
2022-11-05T10:00:55.185Z,3.83
2022-11-05T10:03:58.334Z,3.70
2022-11-05T10:07:03.064Z,3.90
2022-11-05T10:10:06.817Z,3.85
2022-11-05T10:13:40.332Z,3.58
2022-11-05T10:16:48.803Z,4.00
2022-11-05T10:19:58.687Z,4.37
2022-11-05T10:23:18.055Z,4.33
2022-11-05T10:26:21.997Z,3.80
2022-11-05T10:29:29.601Z,4.38
2022-11-05T10:32:39.797Z,3.88
2022-11-05T10:36:05.707Z,3.90
2022-11-05T10:39:17.760Z,3.70
2022-11-05T10:42:47.218Z,4.05
2022-11-05T10:46:05.850Z,4.20
2022-11-05T10:49:30.460Z,3.70
2022-11-05T10:52:34.006Z,3.93
2022-11-05T10:55:41.534Z,4.30
2022-11-05T10:58:53.254Z,4.05
2022-11-05T11:02:21.236Z,4.50
2022-11-05T11:05:32.909Z,3.75
2022-11-05T11:08:35.645Z,3.70
2022-11-05T11:11:39.152Z,3.93
2022-11-05T11:14:40.711Z,4.03
2022-11-05T11:17:45.960Z,3.88
2022-11-05T11:20:47.587Z,4.32
2022-11-05T11:24:03.102Z,4.27
2022-11-05T11:27:06.933Z,4.13
2022-11-05T11:30:17.144Z,3.97
2022-11-05T11:33:26.097Z,4.00
2022-11-05T11:36:33.820Z,3.97
2022-11-05T11:39:35.427Z,4.10
2022-11-05T11:42:39.424Z,3.63
2022-11-05T11:45:48.945Z,4.57
2022-11-05T11:48:53.701Z,3.85
2022-11-05T11:51:59.206Z,4.35
2022-11-05T11:55:21.724Z,4.47
2022-11-05T11:58:25.287Z,4.07
2022-11-05T12:01:35.801Z,4.13
2022-11-05T12:05:14.426Z,4.32
2022-11-05T12:08:25.957Z,3.78
2022-11-05T12:11:41.967Z,4.43
2022-11-05T12:15:04.120Z,4.30
2022-11-05T12:18:09.736Z,3.60
2022-11-05T12:21:47.816Z,4.00
2022-11-05T12:25:02.704Z,4.15
2022-11-05T12:29:04.671Z,4.50
2022-11-05T12:32:16.271Z,3.93
2022-11-05T12:35:57.628Z,4.93
2022-11-05T12:39:19.297Z,4.28
2022-11-05T12:42:45.113Z,4.18
2022-11-05T12:45:58.644Z,4.20
2022-11-05T12:49:18.453Z,4.50
2022-11-05T12:52:44.732Z,4.50
2022-11-05T12:55:49.439Z,4.97
2022-11-05T12:58:55.368Z,4.70
2022-11-05T13:02:17.398Z,5.10
2022-11-05T13:05:46.378Z,4.20
2022-11-05T13:09:03.544Z,4.13
2022-11-05T13:12:13.250Z,4.55
2022-11-05T13:15:25.027Z,4.95
2022-11-05T13:18:30.534Z,4.43
2022-11-05T13:21:35.538Z,4.43
2022-11-05T13:24:45.011Z,4.68
2022-11-05T13:28:01.803Z,4.38
2022-11-05T13:31:05.396Z,4.63
2022-11-05T13:34:11.057Z,4.37
2022-11-05T13:37:34.611Z,4.37
2022-11-05T13:40:51.825Z,4.07
2022-11-05T13:44:08.696Z,4.72
2022-11-05T13:47:19.496Z,4.22
2022-11-05T13:51:00.172Z,4.03
2022-11-05T13:54:10.758Z,4.10
2022-11-05T13:57:49.759Z,4.60
2022-11-05T14:01:14.959Z,4.13
2022-11-05T14:04:25.633Z,4.07
2022-11-05T14:07:28.196Z,3.93
2022-11-05T14:10:47.377Z,4.00
2022-11-05T14:13:55.490Z,4.07
2022-11-05T14:17:09.223Z,4.40
2022-11-05T14:20:35.587Z,4.25
2022-11-05T14:23:40.577Z,4.17
2022-11-05T14:26:42.151Z,4.50
2022-11-05T14:29:49.929Z,4.40
2022-11-05T14:32:53.154Z,4.00
2022-11-05T14:36:20.632Z,4.20
2022-11-05T14:39:22.960Z,4.33
2022-11-05T14:42:30.981Z,3.93
2022-11-05T14:45:37.718Z,4.47
2022-11-05T14:48:40.317Z,5.18
2022-11-05T14:51:45.889Z,4.50
2022-11-05T14:54:52.353Z,4.47
2022-11-05T14:57:56.876Z,4.10
2022-11-05T15:00:58.968Z,4.25
2022-11-05T15:04:21.710Z,4.55
2022-11-05T15:07:23.375Z,4.45
2022-11-05T15:10:30.461Z,4.43
2022-11-05T15:13:34.495Z,4.13
2022-11-05T15:16:40.392Z,4.28
2022-11-05T15:19:42.038Z,4.30
2022-11-05T15:22:45.263Z,4.50
2022-11-05T15:26:07.533Z,4.60
2022-11-05T15:29:28.821Z,4.17
2022-11-05T15:32:34.608Z,4.40
2022-11-05T15:35:41.416Z,4.93
2022-11-05T15:39:08.115Z,4.63
2022-11-05T15:42:25.677Z,4.43
2022-11-05T15:45:27.247Z,4.60
2022-11-05T15:48:29.079Z,4.55
2022-11-05T15:51:30.648Z,4.97
2022-11-05T15:54:32.600Z,4.65
2022-11-05T15:57:37.974Z,4.83
2022-11-05T16:00:42.332Z,4.83
2022-11-05T16:03:43.915Z,4.53
2022-11-05T16:06:52.500Z,4.45
2022-11-05T16:09:58.590Z,4.60
2022-11-05T16:13:38.361Z,5.40
2022-11-05T16:16:39.980Z,4.67
2022-11-05T16:19:42.994Z,4.53
2022-11-05T16:22:45.831Z,4.55
2022-11-05T16:25:47.525Z,4.47
2022-11-05T16:28:52.267Z,4.83
2022-11-05T16:31:54.375Z,4.73
2022-11-05T16:35:00.584Z,5.13
2022-11-05T16:38:02.937Z,5.32
2022-11-05T16:41:04.483Z,4.90
2022-11-05T16:44:06.079Z,4.93
2022-11-05T16:47:07.995Z,5.90
2022-11-05T16:50:16.498Z,5.40
2022-11-05T16:53:18.162Z,4.85
2022-11-05T16:56:20.656Z,5.00
2022-11-05T16:59:22.297Z,5.27
2022-11-05T17:02:24.012Z,5.73
2022-11-05T17:05:28.769Z,5.43
2022-11-05T17:08:33.678Z,5.53
2022-11-05T17:11:35.277Z,5.38
2022-11-05T17:14:36.896Z,5.07
2022-11-05T17:17:38.449Z,4.87
2022-11-05T17:20:44.839Z,5.15
2022-11-05T17:23:50.438Z,4.88
2022-11-05T17:26:52.025Z,4.35
2022-11-05T17:29:53.593Z,4.03
2022-11-05T17:32:55.377Z,4.70
2022-11-05T17:35:57.047Z,4.40
2022-11-05T17:39:01.836Z,4.32
2022-11-05T17:42:03.465Z,4.45
2022-11-05T17:45:05.588Z,4.90
2022-11-05T17:48:09.302Z,5.07
2022-11-05T17:51:12.206Z,4.63
2022-11-05T17:54:16.749Z,4.30
2022-11-05T17:57:18.394Z,4.60
2022-11-05T18:00:21.608Z,4.40
2022-11-05T18:03:23.214Z,4.80
2022-11-05T18:06:24.831Z,4.60
2022-11-05T18:09:29.934Z,4.57
2022-11-05T18:12:31.522Z,5.00
2022-11-05T18:15:33.265Z,4.80
2022-11-05T18:18:35.086Z,4.57
2022-11-05T18:21:36.793Z,4.68
2022-11-05T18:24:38.618Z,4.72
2022-11-05T18:27:40.604Z,4.72
2022-11-05T18:30:42.258Z,5.10
2022-11-05T18:33:43.929Z,4.87
2022-11-05T18:36:45.698Z,4.50
2022-11-05T18:39:50.442Z,4.15
2022-11-05T18:42:56.351Z,4.22
2022-11-05T18:45:57.991Z,4.23
2022-11-05T18:48:59.782Z,4.37
2022-11-05T18:52:01.367Z,4.13
2022-11-05T18:55:03.005Z,4.60
2022-11-05T18:58:08.652Z,4.28
2022-11-05T19:01:16.148Z,4.20
2022-11-05T19:04:20.228Z,4.47
2022-11-05T19:07:23.833Z,4.10
2022-11-05T19:10:25.447Z,3.97
2022-11-05T19:13:27.047Z,4.20
2022-11-05T19:16:29.445Z,4.43
2022-11-05T19:19:31.095Z,4.83
2022-11-05T19:22:32.844Z,4.90
2022-11-05T19:25:34.434Z,4.88
2022-11-05T19:28:40.319Z,4.22
2022-11-05T19:31:42.041Z,4.30
2022-11-05T19:34:43.644Z,4.50
2022-11-05T19:37:45.286Z,4.30
2022-11-05T19:40:47.020Z,4.43
2022-11-05T19:43:48.724Z,4.10
2022-11-05T19:46:50.304Z,4.30
2022-11-05T19:49:51.835Z,4.37
2022-11-05T19:52:53.438Z,4.43
2022-11-05T19:55:54.995Z,4.43
2022-11-05T19:58:56.816Z,4.32
2022-11-05T20:01:58.546Z,3.87
2022-11-05T20:05:00.169Z,4.00
2022-11-05T20:08:01.804Z,4.03
2022-11-05T20:11:03.468Z,4.22
2022-11-05T20:14:05.140Z,3.78
2022-11-05T20:17:06.731Z,4.00
2022-11-05T20:20:08.800Z,3.97
2022-11-05T20:23:10.716Z,4.15
2022-11-05T20:26:17.528Z,3.58
2022-11-05T20:29:19.138Z,3.90
2022-11-05T20:32:20.735Z,4.23
2022-11-05T20:35:23.137Z,4.30
2022-11-05T20:38:24.736Z,4.22
2022-11-05T20:41:26.303Z,4.55
2022-11-05T20:44:27.914Z,4.47
2022-11-05T20:47:29.501Z,4.20
2022-11-05T20:50:31.085Z,4.20
2022-11-05T20:53:32.640Z,4.32
2022-11-05T20:56:37.406Z,4.60
2022-11-05T20:59:39.002Z,3.40
2022-11-05T21:02:41.876Z,4.63
2022-11-05T21:05:47.466Z,3.83
2022-11-05T21:08:50.058Z,4.90
2022-11-05T21:12:13.293Z,4.00
2022-11-05T21:15:15.093Z,4.75
2022-11-05T21:18:20.625Z,4.50
2022-11-05T21:21:22.410Z,4.70
2022-11-05T21:24:23.972Z,4.65
2022-11-05T21:27:28.406Z,5.22
2022-11-05T21:30:30.068Z,4.45
2022-11-05T21:33:31.755Z,5.40
2022-11-05T21:36:33.312Z,4.60
2022-11-05T21:39:34.960Z,4.90
2022-11-05T21:42:39.909Z,4.88
2022-11-05T21:45:42.077Z,4.53
2022-11-05T21:48:43.675Z,5.30
2022-11-05T21:52:03.862Z,4.80
2022-11-05T21:55:40.968Z,5.15
2022-11-05T21:59:00.948Z,4.97
2022-11-05T22:02:03.087Z,5.13
2022-11-05T22:05:05.728Z,5.10
2022-11-05T22:08:07.505Z,4.90
2022-11-05T22:11:09.035Z,5.55
2022-11-05T22:14:14.064Z,4.72
2022-11-05T22:17:18.928Z,5.00
2022-11-05T22:20:20.552Z,4.27
2022-11-05T22:23:22.200Z,4.93
2022-11-05T22:26:24.419Z,5.22
2022-11-05T22:29:26.304Z,5.78
2022-11-05T22:32:27.919Z,4.80
2022-11-05T22:35:29.511Z,4.83
2022-11-05T22:38:31.258Z,5.60
2022-11-05T22:41:32.943Z,5.20
2022-11-05T22:44:34.570Z,5.07
2022-11-05T22:47:36.272Z,5.60
2022-11-05T22:50:38.173Z,4.67
2022-11-05T22:53:40.580Z,5.03
2022-11-05T22:56:42.563Z,5.00
2022-11-05T22:59:44.158Z,5.50
2022-11-05T23:02:45.938Z,5.05
2022-11-05T23:05:47.604Z,4.93
2022-11-05T23:09:07.739Z,5.30
2022-11-05T23:12:36.775Z,4.72
2022-11-05T23:16:17.476Z,5.70
2022-11-05T23:19:37.882Z,6.00
2022-11-05T23:22:57.661Z,5.63
2022-11-05T23:25:59.792Z,5.77
2022-11-05T23:29:05.687Z,5.97
2022-11-05T23:32:25.490Z,6.57
2022-11-05T23:35:45.563Z,6.40
2022-11-05T23:38:47.126Z,6.70
2022-11-05T23:42:07.364Z,6.70
2022-11-05T23:45:31.791Z,7.38
2022-11-05T23:48:35.003Z,7.03
2022-11-05T23:51:36.554Z,6.88
2022-11-05T23:54:38.123Z,6.87
2022-11-05T23:57:40.833Z,7.50
